Time;durP1;ratioP1;P1;durP2;ratioP2;P2;SDS_P1;SDS_P2;PMS_P1;PMS_P2;Temp;Humidity;BMP_temperature;BMP_pressure;BME280_temperature;BME280_humidity;BME280_pressure;Samples;Min_cycle;Max_cycle;Signal;HPM_P1;HPM_P2
2023/12/02 00:02:02;;;;;;;14.90;6.80;;;3.00;98.00;;;;;;4954169;28;20458;-67
2023/12/02 00:04:29;;;;;;;19.30;7.03;;;2.90;98.00;;;;;;4954387;28;20462;-68
2023/12/02 00:06:56;;;;;;;18.13;7.53;;;2.90;98.00;;;;;;4954078;28;21046;-68
2023/12/02 00:09:25;;;;;;;18.03;6.77;;;3.00;98.00;;;;;;4968902;28;20495;-68
2023/12/02 00:11:52;;;;;;;15.00;6.30;;;3.00;98.00;;;;;;4954170;28;20455;-68
2023/12/02 00:14:20;;;;;;;17.83;6.80;;;2.90;98.00;;;;;;4954366;28;20459;-68
2023/12/02 00:16:47;;;;;;;22.23;7.60;;;2.70;98.00;;;;;;4954179;28;20526;-68
2023/12/02 00:19:14;;;;;;;18.20;7.07;;;2.70;98.00;;;;;;4954171;28;20469;-68
2023/12/02 00:21:41;;;;;;;18.03;7.60;;;2.80;98.00;;;;;;4954022;28;20459;-68
2023/12/02 00:24:08;;;;;;;18.97;7.43;;;2.80;98.00;;;;;;4953959;28;20458;-68
2023/12/02 00:26:37;;;;;;;19.60;7.60;;;2.70;98.00;;;;;;4953974;28;20521;-68
2023/12/02 00:29:04;;;;;;;19.70;7.57;;;2.70;98.00;;;;;;4954155;28;20489;-68
2023/12/02 00:31:31;;;;;;;19.33;6.93;;;2.90;98.00;;;;;;4953978;28;21095;-68
2023/12/02 00:33:58;;;;;;;19.03;7.10;;;3.00;98.00;;;;;;4954045;28;20473;-68
2023/12/02 00:36:25;;;;;;;16.10;7.10;;;2.90;98.00;;;;;;4953891;28;20481;-68
2023/12/02 00:38:52;;;;;;;19.43;6.53;;;2.70;98.00;;;;;;4953615;28;20446;-68
2023/12/02 00:41:20;;;;;;;15.93;7.00;;;2.70;98.00;;;;;;4954133;28;20881;-69
2023/12/02 00:43:48;;;;;;;20.60;7.00;;;2.80;98.00;;;;;;4953804;28;20465;-68
2023/12/02 00:46:15;;;;;;;18.60;7.03;;;2.90;98.00;;;;;;4953939;28;20981;-67
2023/12/02 00:48:42;;;;;;;17.43;7.13;;;2.80;98.00;;;;;;4953551;28;20491;-66
2023/12/02 00:51:09;;;;;;;20.97;6.97;;;2.80;98.00;;;;;;4953385;28;20459;-66
2023/12/02 00:53:36;;;;;;;25.67;7.50;;;2.70;98.00;;;;;;4953684;28;20813;-65
2023/12/02 00:56:04;;;;;;;16.93;6.93;;;2.80;98.00;;;;;;4953813;28;20459;-69
2023/12/02 00:58:31;;;;;;;16.13;6.70;;;2.80;98.00;;;;;;4953629;28;20463;-67
2023/12/02 01:00:59;;;;;;;18.20;7.17;;;2.90;98.00;;;;;;4953328;28;20462;-68
2023/12/02 01:03:26;;;;;;;18.40;6.70;;;2.90;98.00;;;;;;4953475;28;20818;-68
2023/12/02 01:05:53;;;;;;;17.53;6.90;;;2.90;98.00;;;;;;4953426;28;20462;-67
2023/12/02 01:08:20;;;;;;;22.80;7.73;;;2.90;98.00;;;;;;4953545;28;20486;-68
2023/12/02 01:10:47;;;;;;;18.97;6.83;;;2.90;98.00;;;;;;4953274;28;20514;-68
2023/12/02 01:13:14;;;;;;;15.97;7.00;;;2.90;98.00;;;;;;4953454;28;20928;-68
2023/12/02 01:15:42;;;;;;;20.47;7.00;;;2.90;98.00;;;;;;4953408;28;20469;-65
2023/12/02 01:18:10;;;;;;;17.27;6.80;;;2.80;98.00;;;;;;4968263;28;20516;-66
2023/12/02 01:20:38;;;;;;;20.53;6.90;;;2.80;98.00;;;;;;4953250;28;20458;-64
2023/12/02 01:23:05;;;;;;;15.27;6.93;;;2.70;98.00;;;;;;4953590;28;20478;-67
2023/12/02 01:25:32;;;;;;;18.37;7.20;;;2.70;98.00;;;;;;4968193;28;20525;-65
2023/12/02 01:27:59;;;;;;;19.90;7.43;;;2.70;98.00;;;;;;4953354;28;20565;-68
2023/12/02 01:30:27;;;;;;;23.57;8.17;;;2.80;98.00;;;;;;4953256;28;21124;-67
2023/12/02 01:32:54;;;;;;;18.70;7.07;;;2.80;98.00;;;;;;4953393;28;20549;-68
2023/12/02 01:35:23;;;;;;;19.87;7.37;;;2.80;98.00;;;;;;4953203;28;20836;-68
2023/12/02 01:37:53;;;;;;;22.53;8.77;;;2.70;98.00;;;;;;4953247;28;20462;-68
2023/12/02 01:40:20;;;;;;;20.80;7.13;;;2.70;98.00;;;;;;4953329;28;20458;-68
2023/12/02 01:42:47;;;;;;;15.80;6.77;;;2.70;98.00;;;;;;4953341;28;20489;-68
2023/12/02 01:45:15;;;;;;;20.20;7.53;;;2.70;98.00;;;;;;4953096;28;20457;-68
2023/12/02 01:47:43;;;;;;;21.07;7.07;;;2.70;98.00;;;;;;4967703;28;20512;-68
2023/12/02 01:50:12;;;;;;;20.10;8.07;;;2.70;98.00;;;;;;4956461;28;20865;-68
2023/12/02 01:52:40;;;;;;;22.00;7.40;;;2.60;98.00;;;;;;4971676;28;20537;-67
2023/12/02 01:55:08;;;;;;;23.53;8.67;;;2.50;98.00;;;;;;4956874;28;20949;-68
2023/12/02 01:57:35;;;;;;;20.70;8.10;;;2.50;98.00;;;;;;4956466;28;20449;-68
2023/12/02 02:00:11;;;;;;;23.77;9.00;;;2.60;98.00;;;;;;4956701;28;20465;-68
2023/12/02 02:02:38;;;;;;;29.30;8.70;;;2.70;98.00;;;;;;4970422;28;20463;-69
2023/12/02 02:05:05;;;;;;;18.77;7.67;;;2.80;98.00;;;;;;4971468;28;20478;-67
2023/12/02 02:07:32;;;;;;;23.83;8.80;;;2.80;98.00;;;;;;4956331;28;20501;-67
2023/12/02 02:10:02;;;;;;;21.67;8.73;;;2.70;98.00;;;;;;4956485;28;20873;-69
2023/12/02 02:12:29;;;;;;;18.77;7.47;;;2.70;98.00;;;;;;4956392;28;20459;-67
2023/12/02 02:14:56;;;;;;;18.97;8.07;;;2.70;98.00;;;;;;4956509;28;20481;-68
2023/12/02 02:17:23;;;;;;;23.00;8.00;;;2.70;98.00;;;;;;4956503;28;20481;-68
2023/12/02 02:19:53;;;;;;;23.73;8.33;;;2.60;98.00;;;;;;4956501;28;20814;-68
2023/12/02 02:22:22;;;;;;;26.57;9.20;;;2.60;98.00;;;;;;4956704;28;20451;-68
2023/12/02 02:24:49;;;;;;;20.83;8.03;;;2.60;98.00;;;;;;4955244;28;21172;-67
2023/12/02 02:27:16;;;;;;;25.10;7.50;;;2.50;98.00;;;;;;4956364;28;20458;-67
2023/12/02 02:29:44;;;;;;;25.73;8.47;;;2.40;98.00;;;;;;4956099;28;20497;-67
2023/12/02 02:32:11;;;;;;;20.83;8.73;;;2.50;98.00;;;;;;4955869;28;20476;-67
2023/12/02 02:34:40;;;;;;;18.37;7.57;;;2.50;98.00;;;;;;4956049;28;20799;-69
2023/12/02 02:37:07;;;;;;;22.17;9.23;;;2.50;98.00;;;;;;4956044;28;20525;-68
2023/12/02 02:39:36;;;;;;;22.00;8.23;;;2.50;98.00;;;;;;4955573;28;20502;-68
2023/12/02 02:42:06;;;;;;;20.50;7.70;;;2.60;98.00;;;;;;4955760;28;20914;-68
2023/12/02 02:44:33;;;;;;;26.90;8.83;;;2.50;98.00;;;;;;4955746;28;20674;-68
2023/12/02 02:47:00;;;;;;;27.53;9.10;;;2.60;98.00;;;;;;4955784;28;20465;-67
2023/12/02 02:49:27;;;;;;;25.63;9.03;;;2.60;98.00;;;;;;4955396;28;20517;-68
2023/12/02 02:51:55;;;;;;;22.73;8.30;;;2.50;98.00;;;;;;4955530;28;20470;-68
2023/12/02 02:54:23;;;;;;;24.13;8.93;;;2.60;98.00;;;;;;4955550;28;20458;-67
2023/12/02 02:56:52;;;;;;;25.03;8.93;;;2.50;98.00;;;;;;4955490;28;20450;-68
2023/12/02 02:59:19;;;;;;;20.87;8.57;;;2.50;98.00;;;;;;4955582;28;20458;-67
2023/12/02 03:01:48;;;;;;;25.00;8.60;;;2.50;98.00;;;;;;4954414;28;20466;-68
2023/12/02 03:04:15;;;;;;;25.63;9.40;;;2.50;98.00;;;;;;4955357;28;20465;-67
2023/12/02 03:06:42;;;;;;;25.77;9.30;;;2.50;98.00;;;;;;4955358;28;20873;-68
2023/12/02 03:09:11;;;;;;;23.23;8.20;;;2.50;98.00;;;;;;4955464;28;20568;-67
2023/12/02 03:11:38;;;;;;;23.57;9.10;;;2.30;98.00;;;;;;4955191;28;20458;-67
2023/12/02 03:14:07;;;;;;;30.97;10.30;;;2.40;98.00;;;;;;4955130;28;20451;-67
2023/12/02 03:16:34;;;;;;;31.43;10.70;;;2.40;98.00;;;;;;4955011;28;20466;-67
2023/12/02 03:19:03;;;;;;;23.63;9.10;;;2.40;98.00;;;;;;4955213;28;20455;-68
2023/12/02 03:21:30;;;;;;;23.80;8.53;;;2.40;98.00;;;;;;4969528;28;20512;-68
2023/12/02 03:23:57;;;;;;;23.73;8.33;;;2.40;98.00;;;;;;4955052;28;21605;-67
2023/12/02 03:26:26;;;;;;;31.50;9.07;;;2.40;98.00;;;;;;4954699;28;20834;-67
2023/12/02 03:28:53;;;;;;;29.60;9.40;;;2.30;98.00;;;;;;4954945;28;20486;-67
2023/12/02 03:31:22;;;;;;;23.00;9.43;;;2.30;98.00;;;;;;4955026;28;20524;-67
2023/12/02 03:33:49;;;;;;;22.80;8.23;;;2.30;98.00;;;;;;4954633;28;20488;-68
2023/12/02 03:36:16;;;;;;;27.20;9.10;;;2.30;98.00;;;;;;4954946;28;20468;-68
2023/12/02 03:38:44;;;;;;;23.50;8.20;;;2.30;98.00;;;;;;4954724;28;20454;-68
2023/12/02 03:41:11;;;;;;;23.60;8.70;;;2.30;98.00;;;;;;4954701;28;20465;-67
2023/12/02 03:43:38;;;;;;;26.43;9.20;;;2.30;98.00;;;;;;4954800;28;20470;-68
2023/12/02 03:46:06;;;;;;;28.03;9.00;;;2.30;98.00;;;;;;4954815;28;20480;-68
2023/12/02 03:48:34;;;;;;;20.77;7.73;;;2.30;98.00;;;;;;4954542;28;20464;-68
2023/12/02 03:51:01;;;;;;;23.97;8.70;;;2.30;98.00;;;;;;4954463;28;20456;-67
2023/12/02 03:53:30;;;;;;;25.80;9.57;;;2.20;98.00;;;;;;4954809;28;20482;-68
2023/12/02 03:55:57;;;;;;;23.13;8.30;;;2.20;98.00;;;;;;4954687;28;20464;-68
2023/12/02 03:58:27;;;;;;;23.60;9.03;;;2.20;98.00;;;;;;4954488;28;20457;-68
2023/12/02 04:00:55;;;;;;;24.10;8.73;;;2.10;98.00;;;;;;4954414;28;20454;-67
2023/12/02 04:03:22;;;;;;;26.47;8.90;;;2.10;98.00;;;;;;4954521;28;20450;-68
2023/12/02 04:05:51;;;;;;;26.63;9.20;;;2.10;98.00;;;;;;4954484;28;20466;-68
2023/12/02 04:08:18;;;;;;;29.60;9.47;;;2.20;98.00;;;;;;4954564;28;20458;-68
2023/12/02 04:10:45;;;;;;;23.77;8.30;;;2.20;98.00;;;;;;4954225;28;20486;-68
2023/12/02 04:13:12;;;;;;;23.13;8.90;;;2.20;98.00;;;;;;4954230;28;20454;-67
2023/12/02 04:15:39;;;;;;;23.67;9.00;;;2.20;98.00;;;;;;4954327;28;21012;-65
2023/12/02 04:18:06;;;;;;;24.00;9.40;;;2.20;98.00;;;;;;4969502;28;20483;-65
2023/12/02 04:20:33;;;;;;;21.40;8.30;;;2.10;98.00;;;;;;4954207;28;20976;-64
2023/12/02 04:23:02;;;;;;;23.80;8.60;;;2.10;98.00;;;;;;4954046;28;20947;-68
2023/12/02 04:25:29;;;;;;;26.83;9.87;;;2.10;98.00;;;;;;4954216;28;20977;-68
2023/12/02 04:27:57;;;;;;;21.30;8.00;;;2.10;98.00;;;;;;4954002;28;20489;-68
2023/12/02 04:30:24;;;;;;;26.80;8.50;;;2.10;98.00;;;;;;4953608;28;20493;-67
2023/12/02 04:32:51;;;;;;;20.97;8.30;;;2.20;98.00;;;;;;4953957;28;20458;-68
2023/12/02 04:35:18;;;;;;;20.00;8.47;;;2.10;98.00;;;;;;4952581;28;20964;-68
2023/12/02 04:37:46;;;;;;;29.50;8.57;;;2.20;98.00;;;;;;4953756;28;20459;-68
2023/12/02 04:40:14;;;;;;;19.80;8.17;;;2.10;98.00;;;;;;4953577;28;20455;-67
2023/12/02 04:42:42;;;;;;;23.13;8.70;;;2.10;98.00;;;;;;4953480;28;20465;-68
2023/12/02 04:45:09;;;;;;;30.70;9.17;;;2.10;98.00;;;;;;4953951;28;20953;-68
2023/12/02 04:47:37;;;;;;;25.90;8.70;;;2.10;98.00;;;;;;4953575;28;20545;-68
2023/12/02 04:50:07;;;;;;;29.10;8.80;;;2.10;98.00;;;;;;4953083;28;20494;-68
2023/12/02 04:52:34;;;;;;;23.83;10.13;;;2.00;98.00;;;;;;4952800;28;20513;-67
2023/12/02 04:55:01;;;;;;;27.77;9.00;;;2.10;98.00;;;;;;4953616;28;20536;-68
2023/12/02 04:57:29;;;;;;;23.07;8.90;;;2.20;98.00;;;;;;4953682;28;20517;-68
2023/12/02 04:59:58;;;;;;;22.17;8.83;;;2.20;98.00;;;;;;4953806;28;20450;-67
2023/12/02 05:02:25;;;;;;;27.03;8.23;;;2.20;98.00;;;;;;4953293;28;20457;-67
2023/12/02 05:04:54;;;;;;;26.40;8.73;;;2.20;98.00;;;;;;4953661;28;20458;-68
2023/12/02 05:07:21;;;;;;;20.27;7.43;;;2.20;98.00;;;;;;4953581;28;20826;-68
2023/12/02 05:09:48;;;;;;;20.87;7.07;;;2.20;98.00;;;;;;4953623;28;20489;-69
2023/12/02 05:12:15;;;;;;;27.87;8.93;;;2.20;98.00;;;;;;4953713;28;20446;-67
2023/12/02 05:14:46;;;;;;;19.40;7.57;;;2.30;98.00;;;;;;4953614;28;20474;-68
2023/12/02 05:17:13;;;;;;;22.20;7.20;;;2.20;98.00;;;;;;4953519;28;20463;-68
2023/12/02 05:19:40;;;;;;;30.43;10.77;;;2.20;98.00;;;;;;4953462;28;20460;-68
2023/12/02 05:22:09;;;;;;;20.87;7.70;;;2.10;98.00;;;;;;4953542;28;20477;-68
2023/12/02 05:24:37;;;;;;;18.20;6.70;;;2.10;98.00;;;;;;4955923;28;20944;-68
2023/12/02 05:27:05;;;;;;;22.50;8.80;;;2.10;98.00;;;;;;4957237;28;20881;-68
2023/12/02 05:29:32;;;;;;;20.23;7.83;;;1.90;98.00;;;;;;4956869;28;20833;-68
2023/12/02 05:32:01;;;;;;;17.97;7.60;;;2.00;98.00;;;;;;4957213;28;20517;-68
2023/12/02 05:34:28;;;;;;;23.37;8.37;;;2.00;98.00;;;;;;4971504;28;20466;-68
2023/12/02 05:36:55;;;;;;;20.23;8.17;;;2.00;98.00;;;;;;4957221;28;20465;-68
2023/12/02 05:39:22;;;;;;;25.30;8.87;;;2.00;98.00;;;;;;4976402;28;20972;-68
2023/12/02 05:41:49;;;;;;;22.37;8.43;;;2.10;98.00;;;;;;4976202;28;20475;-68
2023/12/02 05:44:16;;;;;;;22.50;9.17;;;2.10;98.00;;;;;;4976384;28;20460;-68
2023/12/02 05:46:44;;;;;;;24.00;7.47;;;2.00;98.00;;;;;;4976238;28;20465;-68
2023/12/02 05:49:13;;;;;;;23.17;9.37;;;2.00;98.00;;;;;;4976115;28;20460;-67
2023/12/02 05:51:41;;;;;;;24.07;8.27;;;2.00;98.00;;;;;;4976109;28;20457;-69
2023/12/02 05:54:08;;;;;;;22.63;8.30;;;2.00;98.00;;;;;;4976424;28;20460;-68
2023/12/02 05:56:36;;;;;;;23.47;7.97;;;2.10;98.00;;;;;;4974929;28;20836;-68
2023/12/02 05:59:03;;;;;;;21.50;7.43;;;2.10;98.00;;;;;;4976238;28;20976;-68
2023/12/02 06:01:31;;;;;;;20.70;7.10;;;2.10;98.00;;;;;;4976058;28;20456;-68
2023/12/02 06:03:58;;;;;;;17.20;7.20;;;2.10;98.00;;;;;;4975836;28;20864;-68
2023/12/02 06:06:27;;;;;;;16.00;6.60;;;2.10;98.00;;;;;;4975982;28;20793;-68
2023/12/02 06:08:54;;;;;;;15.97;6.47;;;2.10;98.00;;;;;;4975883;28;20465;-68
2023/12/02 06:11:21;;;;;;;16.07;5.97;;;2.10;98.00;;;;;;4975650;28;20492;-67
2023/12/02 06:13:48;;;;;;;17.40;6.37;;;2.00;98.00;;;;;;4975240;28;20809;-67
2023/12/02 06:16:15;;;;;;;19.23;6.20;;;2.00;98.00;;;;;;4975644;28;20458;-67
2023/12/02 06:18:42;;;;;;;21.10;7.50;;;1.90;98.00;;;;;;4975454;28;20454;-67
2023/12/02 06:21:12;;;;;;;19.70;7.70;;;1.90;98.00;;;;;;4975202;28;20469;-68
2023/12/02 06:23:40;;;;;;;16.97;6.17;;;1.90;98.00;;;;;;4974279;28;20867;-68
2023/12/02 06:26:09;;;;;;;21.17;6.50;;;1.90;98.00;;;;;;4975589;28;20469;-68
2023/12/02 06:28:36;;;;;;;16.07;7.03;;;1.80;98.00;;;;;;4975575;28;20453;-67
2023/12/02 06:31:03;;;;;;;14.60;6.23;;;1.90;98.00;;;;;;4974070;28;20999;-67
2023/12/02 06:33:30;;;;;;;13.53;5.80;;;1.90;98.00;;;;;;4975339;28;20497;-68
2023/12/02 06:35:57;;;;;;;15.23;6.17;;;1.90;98.00;;;;;;4974095;28;20936;-68
2023/12/02 06:38:27;;;;;;;16.60;7.00;;;1.90;98.00;;;;;;4975475;28;20448;-69
2023/12/02 06:40:56;;;;;;;13.10;6.20;;;1.90;98.00;;;;;;4975081;28;20457;-67
2023/12/02 06:43:23;;;;;;;16.90;5.87;;;1.90;98.00;;;;;;4975269;28;20481;-69
2023/12/02 06:45:51;;;;;;;15.30;5.90;;;1.90;98.00;;;;;;4975109;28;20464;-68
2023/12/02 06:48:18;;;;;;;13.10;5.47;;;1.90;98.00;;;;;;4975242;28;20453;-68
2023/12/02 06:50:45;;;;;;;18.93;6.53;;;1.90;98.00;;;;;;4975036;28;20883;-68
2023/12/02 06:53:15;;;;;;;13.63;6.20;;;1.90;98.00;;;;;;4975166;28;20456;-68
2023/12/02 06:55:42;;;;;;;12.30;5.90;;;1.80;98.00;;;;;;4974980;28;20515;-67
2023/12/02 06:58:11;;;;;;;12.40;5.67;;;1.80;98.00;;;;;;4975099;28;20460;-69
2023/12/02 07:00:38;;;;;;;14.87;5.93;;;1.70;98.00;;;;;;4974832;28;20474;-68
2023/12/02 07:03:05;;;;;;;15.37;6.83;;;1.60;98.00;;;;;;4975023;28;20464;-68
2023/12/02 07:05:32;;;;;;;13.73;6.00;;;1.60;98.00;;;;;;4974828;28;20476;-68
2023/12/02 07:07:59;;;;;;;20.93;7.40;;;1.60;98.00;;;;;;4974799;28;20511;-67
2023/12/02 07:10:26;;;;;;;15.23;5.90;;;1.60;98.00;;;;;;4973480;28;20496;-63
2023/12/02 07:12:54;;;;;;;16.10;5.97;;;1.60;98.00;;;;;;4974801;28;20461;-63
2023/12/02 07:15:22;;;;;;;13.70;5.43;;;1.70;98.00;;;;;;4974752;28;20468;-64
2023/12/02 07:17:49;;;;;;;12.97;5.10;;;1.70;98.00;;;;;;4974624;28;20459;-63
2023/12/02 07:20:17;;;;;;;13.67;5.87;;;1.80;98.00;;;;;;4974668;28;20467;-64
2023/12/02 07:22:44;;;;;;;12.23;5.10;;;1.80;98.00;;;;;;4973350;28;20445;-63
2023/12/02 07:25:11;;;;;;;13.10;5.60;;;1.80;98.00;;;;;;4974610;28;20468;-64
2023/12/02 07:27:38;;;;;;;17.13;6.30;;;1.80;98.00;;;;;;4973292;28;20849;-64
2023/12/02 07:30:06;;;;;;;11.47;5.30;;;1.80;98.00;;;;;;4974226;28;20489;-64
2023/12/02 07:32:35;;;;;;;12.20;5.50;;;1.70;98.00;;;;;;4974382;28;20453;-64
2023/12/02 07:35:04;;;;;;;11.30;5.20;;;1.80;98.00;;;;;;4974396;28;20481;-64
2023/12/02 07:37:31;;;;;;;12.57;5.93;;;1.80;98.00;;;;;;4974185;28;20492;-64
2023/12/02 07:39:57;;;;;;;13.70;5.63;;;1.70;98.00;;;;;;4974276;28;21022;-64
2023/12/02 07:42:26;;;;;;;15.60;5.70;;;1.80;98.00;;;;;;4974376;28;20464;-63
2023/12/02 07:44:52;;;;;;;15.87;5.97;;;1.80;98.00;;;;;;4974258;28;20461;-63
2023/12/02 07:47:20;;;;;;;15.03;5.73;;;1.80;98.00;;;;;;4973750;28;20936;-64
2023/12/02 07:49:50;;;;;;;16.17;6.87;;;1.80;98.00;;;;;;4972866;28;20477;-64
2023/12/02 07:52:16;;;;;;;13.70;5.67;;;1.90;98.00;;;;;;4974803;28;20461;-64
2023/12/02 07:54:43;;;;;;;13.97;5.70;;;1.80;98.00;;;;;;4974207;28;20484;-64
2023/12/02 07:57:11;;;;;;;13.97;5.70;;;1.80;98.00;;;;;;4974259;28;20457;-64
2023/12/02 07:59:38;;;;;;;16.07;5.90;;;1.80;98.00;;;;;;4972906;28;20832;-63
2023/12/02 08:02:05;;;;;;;14.50;6.03;;;1.80;98.00;;;;;;4973817;28;20460;-64
2023/12/02 08:04:32;;;;;;;12.70;5.70;;;1.90;98.00;;;;;;4974049;28;20462;-63
2023/12/02 08:07:04;;;;;;;17.37;6.70;;;2.00;98.00;;;;;;4972810;28;20527;-64
2023/12/02 08:09:31;;;;;;;12.60;5.83;;;2.10;98.00;;;;;;4973460;28;20449;-64
2023/12/02 08:11:58;;;;;;;15.03;6.57;;;2.00;98.00;;;;;;5156811;23;20501;-63
2023/12/02 08:14:25;;;;;;;16.67;7.10;;;2.10;98.00;;;;;;4953649;28;20457;-63
2023/12/02 08:16:52;;;;;;;16.43;6.43;;;2.00;98.00;;;;;;4953699;28;20535;-63
2023/12/02 08:19:19;;;;;;;14.00;5.33;;;2.00;98.00;;;;;;4953611;28;20462;-63
2023/12/02 08:21:47;;;;;;;16.30;5.80;;;2.00;98.00;;;;;;4952679;28;20879;-63
2023/12/02 08:24:16;;;;;;;13.80;5.60;;;1.90;98.00;;;;;;4949819;28;20453;-63
2023/12/02 08:26:43;;;;;;;17.03;5.10;;;1.90;98.00;;;;;;4941891;29;20547;-63
2023/12/02 08:29:10;;;;;;;12.67;4.93;;;1.80;98.00;;;;;;4943226;29;20512;-62
2023/12/02 08:31:37;;;;;;;15.50;6.83;;;1.80;98.00;;;;;;4935372;29;20537;-62
2023/12/02 08:34:04;;;;;;;13.90;6.07;;;1.90;98.00;;;;;;4934359;29;20455;-62
2023/12/02 08:36:31;;;;;;;13.33;5.93;;;1.80;98.00;;;;;;4933949;29;20474;-62
2023/12/02 08:38:59;;;;;;;17.20;5.97;;;1.80;98.00;;;;;;4934744;29;20934;-62
2023/12/02 08:41:27;;;;;;;11.80;5.33;;;1.80;98.00;;;;;;4934778;29;20487;-63
2023/12/02 08:43:54;;;;;;;12.57;6.60;;;1.80;98.00;;;;;;4934748;29;20949;-62
2023/12/02 08:46:22;;;;;;;17.83;6.27;;;1.80;98.00;;;;;;4954169;28;20473;-62
2023/12/02 08:48:49;;;;;;;14.80;5.93;;;1.70;98.00;;;;;;4953673;28;20457;-62
2023/12/02 08:51:16;;;;;;;13.53;5.40;;;1.70;98.00;;;;;;4953609;28;20492;-62
2023/12/02 08:53:43;;;;;;;16.20;6.83;;;1.60;98.00;;;;;;4953708;28;20889;-62
2023/12/02 08:56:11;;;;;;;17.80;6.40;;;1.60;98.00;;;;;;4953817;28;20465;-62
2023/12/02 08:58:40;;;;;;;14.03;6.90;;;1.70;98.00;;;;;;4954670;28;21185;-63
2023/12/02 09:01:07;;;;;;;21.33;7.00;;;1.80;98.00;;;;;;4957578;28;20461;-62
2023/12/02 09:03:34;;;;;;;15.83;5.57;;;1.70;98.00;;;;;;4953126;29;20461;-62
2023/12/02 09:06:03;;;;;;;14.53;6.03;;;1.70;98.00;;;;;;4938352;29;20462;-63
2023/12/02 09:08:30;;;;;;;14.20;6.17;;;1.70;98.00;;;;;;4938499;29;20458;-62
2023/12/02 09:10:56;;;;;;;12.80;5.97;;;1.70;98.00;;;;;;4938206;29;20490;-62
2023/12/02 09:13:43;;;;;;;14.10;5.07;;;1.70;98.00;;;;;;4938364;29;20822;-62
2023/12/02 09:16:11;;;;;;;17.10;6.40;;;1.70;98.00;;;;;;4938320;29;20470;-62
2023/12/02 09:18:40;;;;;;;12.80;6.10;;;1.70;98.00;;;;;;4938226;29;20465;-62
2023/12/02 09:21:41;;;;;;;13.67;5.80;;;1.70;98.00;;;;;;4940451;29;20459;-63
2023/12/02 09:24:33;;;;;;;14.20;6.40;;;1.70;98.00;;;;;;4936581;29;20560;-62
2023/12/02 09:27:01;;;;;;;18.23;6.43;;;1.70;98.00;;;;;;4937342;29;20573;-63
2023/12/02 09:29:37;;;;;;;21.40;6.77;;;1.60;98.00;;;;;;4937391;29;20462;-63
2023/12/02 09:32:10;;;;;;;11.97;5.37;;;1.60;98.00;;;;;;4937389;29;20501;-63
2023/12/02 09:34:56;;;;;;;16.70;6.33;;;1.50;98.00;;;;;;4937456;29;20489;-60
2023/12/02 09:37:53;;;;;;;14.63;5.77;;;1.50;98.00;;;;;;4934855;29;20505;-62
2023/12/02 09:40:35;;;;;;;15.77;6.43;;;1.40;98.00;;;;;;4937670;29;20878;-63
2023/12/02 09:43:16;;;;;;;14.70;5.73;;;1.50;98.00;;;;;;4937598;29;20468;-63
2023/12/02 09:45:55;;;;;;;13.93;5.50;;;1.40;98.00;;;;;;4937129;29;20544;-63
2023/12/02 09:48:25;;;;;;;15.03;5.77;;;1.30;98.00;;;;;;4937242;29;20472;-63
2023/12/02 09:51:03;;;;;;;12.20;5.80;;;1.30;98.00;;;;;;4936912;29;20490;-62
2023/12/02 09:53:43;;;;;;;13.00;5.77;;;1.30;98.00;;;;;;4937231;29;20469;-63
2023/12/02 09:56:20;;;;;;;12.10;5.57;;;1.30;98.00;;;;;;4937374;29;20462;-63
2023/12/02 09:58:48;;;;;;;17.13;6.03;;;1.30;98.00;;;;;;4951737;29;20456;-63
2023/12/02 10:01:36;;;;;;;13.37;4.93;;;1.20;98.00;;;;;;4936881;29;20451;-63
2023/12/02 10:04:04;;;;;;;11.77;4.53;;;;;;;;;;4937133;29;20523;-63
2023/12/02 10:06:51;;;;;;;10.97;4.70;;;1.20;98.00;;;;;;4936684;29;20465;-63
2023/12/02 10:09:28;;;;;;;13.53;5.87;;;;;;;;;;4936687;29;20512;-63
2023/12/02 10:12:06;;;;;;;18.90;5.57;;;1.20;98.00;;;;;;4936548;29;20593;-63
2023/12/02 10:14:38;;;;;;;8.57;4.00;;;1.20;98.00;;;;;;4936713;29;20462;-63
2023/12/02 10:17:11;;;;;;;9.63;4.20;;;1.20;98.00;;;;;;4936611;29;20465;-63
2023/12/02 10:19:46;;;;;;;12.43;5.80;;;1.20;98.00;;;;;;4936522;29;20458;-63
2023/12/02 10:22:18;;;;;;;10.87;5.13;;;1.20;98.00;;;;;;4936456;29;20465;-63
2023/12/02 10:24:54;;;;;;;17.30;5.60;;;1.20;98.00;;;;;;4935485;29;20458;-63
2023/12/02 10:27:22;;;;;;;10.43;5.50;;;1.30;98.00;;;;;;4935239;29;20469;-63
2023/12/02 10:30:00;;;;;;;12.27;5.13;;;1.30;98.00;;;;;;4936372;29;20470;-63
2023/12/02 10:32:33;;;;;;;12.77;5.50;;;1.30;98.00;;;;;;4936365;29;20501;-63
2023/12/02 10:35:12;;;;;;;17.43;6.47;;;1.40;98.00;;;;;;4936399;29;20904;-63
2023/12/02 10:37:41;;;;;;;15.10;5.40;;;1.40;98.00;;;;;;4936248;29;20949;-63
2023/12/02 10:40:10;;;;;;;12.73;4.30;;;1.30;98.00;;;;;;4935094;29;21024;-63
2023/12/02 10:42:49;;;;;;;10.73;4.30;;;1.20;98.00;;;;;;4936118;29;20833;-63
2023/12/02 10:45:16;;;;;;;10.90;5.17;;;1.20;98.00;;;;;;4936172;29;20953;-63
2023/12/02 10:47:47;;;;;;;12.47;5.50;;;1.20;98.00;;;;;;4935865;29;20537;-63
2023/12/02 10:50:17;;;;;;;12.13;5.17;;;1.20;98.00;;;;;;4935993;29;20517;-63
2023/12/02 10:52:56;;;;;;;11.60;5.03;;;1.20;98.00;;;;;;4935887;29;20501;-63
2023/12/02 10:55:25;;;;;;;10.67;4.90;;;1.30;98.00;;;;;;4935960;29;20466;-63
2023/12/02 10:57:53;;;;;;;14.07;5.40;;;1.40;98.00;;;;;;4935773;29;20457;-63
2023/12/02 11:00:22;;;;;;;14.27;5.30;;;1.30;98.00;;;;;;4935747;29;20867;-63
2023/12/02 11:03:05;;;;;;;14.33;5.60;;;1.40;98.00;;;;;;4935566;29;20473;-63
2023/12/02 11:05:38;;;;;;;10.30;4.77;;;1.40;98.00;;;;;;4935294;29;20458;-63
2023/12/02 11:08:16;;;;;;;16.40;6.57;;;1.40;98.00;;;;;;4935726;29;20458;-63
2023/12/02 11:10:50;;;;;;;14.00;6.60;;;1.50;98.00;;;;;;4935442;29;20458;-63
2023/12/02 11:13:20;;;;;;;16.20;6.40;;;1.60;98.00;;;;;;4935598;29;20485;-63
2023/12/02 11:16:15;;;;;;;16.43;6.30;;;1.50;98.00;;;;;;4935558;29;20485;-63
2023/12/02 11:18:54;;;;;;;15.87;5.63;;;1.40;98.00;;;;;;4935520;29;20466;-63
2023/12/02 11:21:28;;;;;;;21.60;6.93;;;1.40;98.00;;;;;;4934947;29;20459;-63
2023/12/02 11:24:07;;;;;;;13.13;4.83;;;1.30;98.00;;;;;;4935433;29;20468;-63
2023/12/02 11:26:40;;;;;;;13.43;5.60;;;1.20;98.00;;;;;;4935307;29;20462;-63
2023/12/02 11:29:16;;;;;;;18.20;6.33;;;1.20;98.00;;;;;;4935481;29;20533;-63
2023/12/02 11:32:19;;;;;;;15.77;4.67;;;1.20;98.00;;;;;;4934130;29;20575;-63
2023/12/02 11:35:10;;;;;;;10.27;5.00;;;1.10;98.00;;;;;;4929106;29;20560;-63
2023/12/02 11:37:56;;;;;;;13.90;5.40;;;1.20;98.00;;;;;;4932330;29;20488;-63
2023/12/02 11:40:29;;;;;;;12.87;5.30;;;1.30;98.00;;;;;;4935552;29;20548;-63
2023/12/02 11:43:04;;;;;;;11.97;5.60;;;1.40;98.00;;;;;;4935297;29;20473;-63
2023/12/02 11:45:37;;;;;;;12.67;4.90;;;1.30;98.00;;;;;;4935322;29;20957;-63
2023/12/02 11:48:20;;;;;;;14.90;5.87;;;1.30;98.00;;;;;;4935052;29;20453;-63
2023/12/02 11:51:20;;;;;;;10.70;4.70;;;1.40;98.00;;;;;;4934964;29;20470;-63
2023/12/02 11:54:06;;;;;;;9.40;4.43;;;1.40;98.00;;;;;;4934978;29;20466;-63
2023/12/02 11:56:35;;;;;;;12.57;5.70;;;1.30;98.00;;;;;;4933603;29;20553;-64
2023/12/02 11:59:15;;;;;;;10.70;4.87;;;1.30;98.00;;;;;;4934766;29;20469;-63
2023/12/02 12:01:52;;;;;;;18.20;5.50;;;1.20;98.00;;;;;;4934719;29;20545;-63
2023/12/02 12:04:44;;;;;;;17.73;7.10;;;1.20;98.00;;;;;;4933711;29;20501;-63
2023/12/02 12:07:29;;;;;;;14.40;6.60;;;1.10;98.00;;;;;;4949015;29;20469;-63
2023/12/02 12:10:04;;;;;;;15.03;6.50;;;1.10;98.00;;;;;;4934781;29;20464;-63
2023/12/02 12:12:34;;;;;;;15.80;6.73;;;1.10;98.00;;;;;;4933282;29;20924;-63
2023/12/02 12:15:04;;;;;;;16.73;6.23;;;1.10;98.00;;;;;;4934687;29;20866;-63
2023/12/02 12:17:31;;;;;;;15.17;6.27;;;1.00;98.00;;;;;;4934544;29;20458;-63
2023/12/02 12:19:59;;;;;;;17.50;6.07;;;0.90;98.00;;;;;;4934796;29;20465;-63
2023/12/02 12:22:28;;;;;;;14.20;6.60;;;0.90;98.00;;;;;;4934980;29;20553;-64
2023/12/02 12:24:55;;;;;;;14.27;6.13;;;0.90;98.00;;;;;;4933787;29;20457;-63
2023/12/02 12:27:22;;;;;;;16.63;5.80;;;1.00;98.00;;;;;;4934763;29;20467;-63
2023/12/02 12:29:53;;;;;;;17.93;7.27;;;0.90;98.00;;;;;;4934681;29;20464;-63
2023/12/02 12:32:20;;;;;;;16.23;7.00;;;0.90;98.00;;;;;;4934713;29;20581;-63
2023/12/02 12:34:47;;;;;;;14.90;5.63;;;0.90;98.00;;;;;;4934954;29;20460;-63
2023/12/02 12:37:18;;;;;;;8.80;4.60;;;1.00;98.00;;;;;;4934513;29;20463;-63
2023/12/02 12:39:49;;;;;;;13.17;5.70;;;0.90;98.00;;;;;;4933351;29;21013;-63
2023/12/02 12:42:18;;;;;;;13.40;5.70;;;0.90;98.00;;;;;;4934544;29;20542;-63
2023/12/02 12:44:46;;;;;;;14.63;5.80;;;1.00;98.00;;;;;;4933112;29;20804;-63
2023/12/02 12:47:16;;;;;;;14.70;6.10;;;1.00;98.00;;;;;;4934389;29;20464;-63
2023/12/02 12:49:44;;;;;;;12.70;5.70;;;1.00;98.00;;;;;;4934321;29;20454;-63
2023/12/02 12:52:14;;;;;;;11.00;5.37;;;0.90;98.00;;;;;;4934208;29;20810;-63
2023/12/02 12:54:52;;;;;;;12.93;4.20;;;0.90;98.00;;;;;;4934231;29;20568;-63
2023/12/02 12:57:30;;;;;;;12.80;5.67;;;0.80;98.00;;;;;;4934106;29;20457;-63
2023/12/02 13:00:00;;;;;;;11.90;4.70;;;0.80;98.00;;;;;;4934105;29;20521;-63
2023/12/02 13:02:36;;;;;;;10.73;4.60;;;0.80;98.00;;;;;;4934107;29;20886;-63